sensor_id;sensor_type;location;lat;lon;timestamp;temperature;humidity
21891;DHT22;11110;52.386;16.940;2023-08-17T00:00:19;33.10;47.50
21891;DHT22;11110;52.386;16.940;2023-08-17T00:03:09;33.10;48.10
21891;DHT22;11110;52.386;16.940;2023-08-17T00:05:38;33.10;47.70
21891;DHT22;11110;52.386;16.940;2023-08-17T00:08:08;33.10;47.80
21891;DHT22;11110;52.386;16.940;2023-08-17T00:10:36;33.10;47.80
21891;DHT22;11110;52.386;16.940;2023-08-17T00:13:06;33.10;47.80
21891;DHT22;11110;52.386;16.940;2023-08-17T00:15:34;33.10;47.70
21891;DHT22;11110;52.386;16.940;2023-08-17T00:18:03;33.10;47.60
21891;DHT22;11110;52.386;16.940;2023-08-17T00:20:33;33.10;47.50
21891;DHT22;11110;52.386;16.940;2023-08-17T00:23:02;33.10;47.70
21891;DHT22;11110;52.386;16.940;2023-08-17T00:25:30;33.10;47.80
21891;DHT22;11110;52.386;16.940;2023-08-17T00:27:59;33.20;47.70
21891;DHT22;11110;52.386;16.940;2023-08-17T00:30:27;33.10;47.30
21891;DHT22;11110;52.386;16.940;2023-08-17T00:32:56;33.20;47.10
21891;DHT22;11110;52.386;16.940;2023-08-17T00:35:24;33.10;47.20
21891;DHT22;11110;52.386;16.940;2023-08-17T00:37:54;33.20;47.20
21891;DHT22;11110;52.386;16.940;2023-08-17T00:40:23;33.20;47.30
21891;DHT22;11110;52.386;16.940;2023-08-17T00:42:51;33.10;47.40
21891;DHT22;11110;52.386;16.940;2023-08-17T00:45:21;33.20;47.20
21891;DHT22;11110;52.386;16.940;2023-08-17T00:47:50;33.20;47.50
21891;DHT22;11110;52.386;16.940;2023-08-17T00:50:18;33.20;47.20
21891;DHT22;11110;52.386;16.940;2023-08-17T00:52:47;33.20;47.30
21891;DHT22;11110;52.386;16.940;2023-08-17T00:55:17;33.20;47.20
21891;DHT22;11110;52.386;16.940;2023-08-17T00:57:46;33.20;47.30
21891;DHT22;11110;52.386;16.940;2023-08-17T01:00:15;33.20;47.60
21891;DHT22;11110;52.386;16.940;2023-08-17T01:02:46;33.20;47.70
21891;DHT22;11110;52.386;16.940;2023-08-17T01:05:16;33.20;47.70
21891;DHT22;11110;52.386;16.940;2023-08-17T01:07:45;33.20;47.90
21891;DHT22;11110;52.386;16.940;2023-08-17T01:10:14;33.20;48.00
21891;DHT22;11110;52.386;16.940;2023-08-17T01:12:50;33.20;48.30
21891;DHT22;11110;52.386;16.940;2023-08-17T01:15:24;33.30;48.30
21891;DHT22;11110;52.386;16.940;2023-08-17T01:18:03;33.20;48.60
21891;DHT22;11110;52.386;16.940;2023-08-17T01:20:33;33.20;48.90
21891;DHT22;11110;52.386;16.940;2023-08-17T01:23:05;33.10;49.60
21891;DHT22;11110;52.386;16.940;2023-08-17T01:25:33;33.10;49.90
21891;DHT22;11110;52.386;16.940;2023-08-17T01:28:04;33.00;49.70
21891;DHT22;11110;52.386;16.940;2023-08-17T01:30:36;33.10;49.80
21891;DHT22;11110;52.386;16.940;2023-08-17T01:33:07;33.10;50.00
21891;DHT22;11110;52.386;16.940;2023-08-17T01:35:39;33.10;50.10
21891;DHT22;11110;52.386;16.940;2023-08-17T01:38:14;33.10;49.70
21891;DHT22;11110;52.386;16.940;2023-08-17T01:40:45;33.10;49.80
21891;DHT22;11110;52.386;16.940;2023-08-17T01:43:15;33.10;49.80
21891;DHT22;11110;52.386;16.940;2023-08-17T01:45:44;33.00;49.70
21891;DHT22;11110;52.386;16.940;2023-08-17T01:48:13;33.00;49.70
21891;DHT22;11110;52.386;16.940;2023-08-17T01:50:41;33.00;49.80
21891;DHT22;11110;52.386;16.940;2023-08-17T01:53:12;33.00;49.70
21891;DHT22;11110;52.386;16.940;2023-08-17T01:55:41;33.00;49.80
21891;DHT22;11110;52.386;16.940;2023-08-17T01:58:09;33.00;49.90
21891;DHT22;11110;52.386;16.940;2023-08-17T02:00:38;33.00;49.90
21891;DHT22;11110;52.386;16.940;2023-08-17T02:03:06;33.00;50.00
21891;DHT22;11110;52.386;16.940;2023-08-17T02:05:35;32.90;49.90
21891;DHT22;11110;52.386;16.940;2023-08-17T02:08:04;33.00;49.80
21891;DHT22;11110;52.386;16.940;2023-08-17T02:10:33;32.90;49.80
21891;DHT22;11110;52.386;16.940;2023-08-17T02:13:02;32.90;49.70
21891;DHT22;11110;52.386;16.940;2023-08-17T02:15:43;32.90;49.70
21891;DHT22;11110;52.386;16.940;2023-08-17T02:18:12;32.70;49.90
21891;DHT22;11110;52.386;16.940;2023-08-17T02:20:40;32.60;49.90
21891;DHT22;11110;52.386;16.940;2023-08-17T02:23:11;32.60;50.20
21891;DHT22;11110;52.386;16.940;2023-08-17T02:25:41;32.40;50.40
21891;DHT22;11110;52.386;16.940;2023-08-17T02:28:09;32.30;50.60
21891;DHT22;11110;52.386;16.940;2023-08-17T02:30:37;32.10;50.90
21891;DHT22;11110;52.386;16.940;2023-08-17T02:33:06;31.80;51.20
21891;DHT22;11110;52.386;16.940;2023-08-17T02:35:34;31.70;51.90
21891;DHT22;11110;52.386;16.940;2023-08-17T02:38:03;31.50;52.20
21891;DHT22;11110;52.386;16.940;2023-08-17T02:40:32;31.40;52.20
21891;DHT22;11110;52.386;16.940;2023-08-17T02:43:02;31.30;52.40
21891;DHT22;11110;52.386;16.940;2023-08-17T02:45:30;31.20;52.80
21891;DHT22;11110;52.386;16.940;2023-08-17T02:48:01;31.00;53.20
21891;DHT22;11110;52.386;16.940;2023-08-17T02:50:30;31.00;53.70
21891;DHT22;11110;52.386;16.940;2023-08-17T02:52:58;30.80;54.10
21891;DHT22;11110;52.386;16.940;2023-08-17T02:55:29;30.60;54.00
21891;DHT22;11110;52.386;16.940;2023-08-17T02:57:57;30.50;54.10
21891;DHT22;11110;52.386;16.940;2023-08-17T03:00:27;30.50;54.40
21891;DHT22;11110;52.386;16.940;2023-08-17T03:02:57;30.20;54.50
21891;DHT22;11110;52.386;16.940;2023-08-17T03:05:26;30.10;54.60
21891;DHT22;11110;52.386;16.940;2023-08-17T03:07:54;30.00;54.40
21891;DHT22;11110;52.386;16.940;2023-08-17T03:10:23;30.00;54.60
21891;DHT22;11110;52.386;16.940;2023-08-17T03:12:52;29.90;54.50
21891;DHT22;11110;52.386;16.940;2023-08-17T03:15:20;29.90;54.70
21891;DHT22;11110;52.386;16.940;2023-08-17T03:17:50;29.90;54.70
21891;DHT22;11110;52.386;16.940;2023-08-17T03:20:19;29.90;54.80
21891;DHT22;11110;52.386;16.940;2023-08-17T03:22:47;29.80;55.00
21891;DHT22;11110;52.386;16.940;2023-08-17T03:25:16;29.80;55.30
21891;DHT22;11110;52.386;16.940;2023-08-17T03:27:46;29.80;55.40
21891;DHT22;11110;52.386;16.940;2023-08-17T03:30:14;29.80;56.00
21891;DHT22;11110;52.386;16.940;2023-08-17T03:32:43;29.80;55.50
21891;DHT22;11110;52.386;16.940;2023-08-17T03:35:13;29.90;55.60
21891;DHT22;11110;52.386;16.940;2023-08-17T03:37:42;30.00;55.30
21891;DHT22;11110;52.386;16.940;2023-08-17T03:40:11;30.10;55.20
21891;DHT22;11110;52.386;16.940;2023-08-17T03:42:40;30.20;55.00
21891;DHT22;11110;52.386;16.940;2023-08-17T03:45:10;30.40;55.00
21891;DHT22;11110;52.386;16.940;2023-08-17T03:47:38;30.50;54.70
21891;DHT22;11110;52.386;16.940;2023-08-17T03:50:08;30.50;54.60
21891;DHT22;11110;52.386;16.940;2023-08-17T03:52:38;30.50;54.30
21891;DHT22;11110;52.386;16.940;2023-08-17T03:55:07;30.60;54.60
21891;DHT22;11110;52.386;16.940;2023-08-17T03:57:36;30.70;54.50
21891;DHT22;11110;52.386;16.940;2023-08-17T04:00:07;30.80;54.30
21891;DHT22;11110;52.386;16.940;2023-08-17T04:02:40;30.90;54.10
21891;DHT22;11110;52.386;16.940;2023-08-17T04:05:14;31.00;54.10
21891;DHT22;11110;52.386;16.940;2023-08-17T04:07:44;31.00;53.90
21891;DHT22;11110;52.386;16.940;2023-08-17T04:10:14;31.10;53.70
21891;DHT22;11110;52.386;16.940;2023-08-17T04:12:43;31.20;53.60
21891;DHT22;11110;52.386;16.940;2023-08-17T04:15:11;31.20;53.60
21891;DHT22;11110;52.386;16.940;2023-08-17T04:17:40;31.20;53.60
21891;DHT22;11110;52.386;16.940;2023-08-17T04:20:09;31.20;53.50
21891;DHT22;11110;52.386;16.940;2023-08-17T04:22:38;31.00;53.50
21891;DHT22;11110;52.386;16.940;2023-08-17T04:25:08;31.00;53.50
21891;DHT22;11110;52.386;16.940;2023-08-17T04:27:37;30.80;53.80
21891;DHT22;11110;52.386;16.940;2023-08-17T04:30:07;30.70;54.10
21891;DHT22;11110;52.386;16.940;2023-08-17T04:32:46;30.50;54.20
21891;DHT22;11110;52.386;16.940;2023-08-17T04:35:20;30.30;54.90
21891;DHT22;11110;52.386;16.940;2023-08-17T04:37:48;30.10;54.90
21891;DHT22;11110;52.386;16.940;2023-08-17T04:40:18;29.80;54.90
21891;DHT22;11110;52.386;16.940;2023-08-17T04:42:48;29.60;55.20
21891;DHT22;11110;52.386;16.940;2023-08-17T04:45:16;29.40;55.30
21891;DHT22;11110;52.386;16.940;2023-08-17T04:47:46;29.30;55.50
21891;DHT22;11110;52.386;16.940;2023-08-17T04:50:15;29.30;55.50
21891;DHT22;11110;52.386;16.940;2023-08-17T04:52:44;29.20;55.70
21891;DHT22;11110;52.386;16.940;2023-08-17T04:55:13;29.20;55.60
21891;DHT22;11110;52.386;16.940;2023-08-17T04:57:44;29.10;55.60
21891;DHT22;11110;52.386;16.940;2023-08-17T05:00:15;29.10;55.60
21891;DHT22;11110;52.386;16.940;2023-08-17T05:02:43;29.00;55.50
21891;DHT22;11110;52.386;16.940;2023-08-17T05:05:13;29.10;55.60
21891;DHT22;11110;52.386;16.940;2023-08-17T05:07:41;29.00;55.50
21891;DHT22;11110;52.386;16.940;2023-08-17T05:10:10;29.10;55.70
21891;DHT22;11110;52.386;16.940;2023-08-17T05:12:40;29.10;56.20
21891;DHT22;11110;52.386;16.940;2023-08-17T05:15:11;29.00;55.50
21891;DHT22;11110;52.386;16.940;2023-08-17T05:17:40;29.10;55.80
21891;DHT22;11110;52.386;16.940;2023-08-17T05:20:12;29.20;55.80
21891;DHT22;11110;52.386;16.940;2023-08-17T05:22:42;29.20;55.70
21891;DHT22;11110;52.386;16.940;2023-08-17T05:25:10;29.20;55.60
21891;DHT22;11110;52.386;16.940;2023-08-17T05:27:40;29.20;55.50
21891;DHT22;11110;52.386;16.940;2023-08-17T05:30:11;29.30;55.50
21891;DHT22;11110;52.386;16.940;2023-08-17T05:32:40;29.30;55.50
21891;DHT22;11110;52.386;16.940;2023-08-17T05:35:09;29.40;55.60
21891;DHT22;11110;52.386;16.940;2023-08-17T05:37:38;29.40;55.40
21891;DHT22;11110;52.386;16.940;2023-08-17T05:40:07;29.50;55.10
21891;DHT22;11110;52.386;16.940;2023-08-17T05:42:36;29.50;55.00
21891;DHT22;11110;52.386;16.940;2023-08-17T05:45:06;29.60;54.80
21891;DHT22;11110;52.386;16.940;2023-08-17T05:47:36;29.70;54.60
21891;DHT22;11110;52.386;16.940;2023-08-17T05:50:05;29.70;54.30
21891;DHT22;11110;52.386;16.940;2023-08-17T05:52:34;29.80;54.60
21891;DHT22;11110;52.386;16.940;2023-08-17T05:55:03;29.80;54.50
21891;DHT22;11110;52.386;16.940;2023-08-17T05:57:31;29.90;55.00
21891;DHT22;11110;52.386;16.940;2023-08-17T06:00:00;30.00;54.40
21891;DHT22;11110;52.386;16.940;2023-08-17T06:02:40;30.00;54.00
21891;DHT22;11110;52.386;16.940;2023-08-17T06:05:08;30.00;54.10
21891;DHT22;11110;52.386;16.940;2023-08-17T06:07:37;30.10;54.40
21891;DHT22;11110;52.386;16.940;2023-08-17T06:10:06;30.20;54.70
21891;DHT22;11110;52.386;16.940;2023-08-17T06:12:35;30.20;54.50
21891;DHT22;11110;52.386;16.940;2023-08-17T06:15:04;30.20;53.90
21891;DHT22;11110;52.386;16.940;2023-08-17T06:17:33;30.20;53.90
21891;DHT22;11110;52.386;16.940;2023-08-17T06:20:03;30.20;53.90
21891;DHT22;11110;52.386;16.940;2023-08-17T06:22:32;30.20;53.80
21891;DHT22;11110;52.386;16.940;2023-08-17T06:25:00;30.20;53.90
21891;DHT22;11110;52.386;16.940;2023-08-17T06:27:29;30.20;54.20
21891;DHT22;11110;52.386;16.940;2023-08-17T06:29:58;30.10;54.10
21891;DHT22;11110;52.386;16.940;2023-08-17T06:32:26;30.20;54.20
21891;DHT22;11110;52.386;16.940;2023-08-17T06:34:54;30.10;54.10
21891;DHT22;11110;52.386;16.940;2023-08-17T06:37:24;30.20;54.00
21891;DHT22;11110;52.386;16.940;2023-08-17T06:39:53;30.20;54.20
21891;DHT22;11110;52.386;16.940;2023-08-17T06:42:22;30.10;54.00
21891;DHT22;11110;52.386;16.940;2023-08-17T06:44:50;30.20;54.40
21891;DHT22;11110;52.386;16.940;2023-08-17T06:47:18;30.10;53.90
21891;DHT22;11110;52.386;16.940;2023-08-17T06:49:47;30.00;54.30
21891;DHT22;11110;52.386;16.940;2023-08-17T06:52:15;29.80;54.00
21891;DHT22;11110;52.386;16.940;2023-08-17T06:54:45;29.70;54.40
21891;DHT22;11110;52.386;16.940;2023-08-17T06:57:14;29.80;54.80
21891;DHT22;11110;52.386;16.940;2023-08-17T06:59:42;29.80;55.10
21891;DHT22;11110;52.386;16.940;2023-08-17T07:02:13;30.00;54.70
21891;DHT22;11110;52.386;16.940;2023-08-17T07:04:41;30.00;53.90
21891;DHT22;11110;52.386;16.940;2023-08-17T07:07:10;30.10;54.00
21891;DHT22;11110;52.386;16.940;2023-08-17T07:09:39;30.20;54.70
21891;DHT22;11110;52.386;16.940;2023-08-17T07:12:09;30.30;54.80
21891;DHT22;11110;52.386;16.940;2023-08-17T07:14:37;30.30;53.90
21891;DHT22;11110;52.386;16.940;2023-08-17T07:17:05;30.50;54.20
21891;DHT22;11110;52.386;16.940;2023-08-17T07:19:34;30.60;53.50
21891;DHT22;11110;52.386;16.940;2023-08-17T07:22:22;30.60;52.90
21891;DHT22;11110;52.386;16.940;2023-08-17T07:24:51;30.70;52.80
21891;DHT22;11110;52.386;16.940;2023-08-17T07:27:20;30.70;52.80
21891;DHT22;11110;52.386;16.940;2023-08-17T07:29:49;30.80;52.20
21891;DHT22;11110;52.386;16.940;2023-08-17T07:32:18;30.80;52.70
21891;DHT22;11110;52.386;16.940;2023-08-17T07:34:48;30.90;53.10
21891;DHT22;11110;52.386;16.940;2023-08-17T07:37:16;30.90;53.30
21891;DHT22;11110;52.386;16.940;2023-08-17T07:39:45;30.90;52.00
21891;DHT22;11110;52.386;16.940;2023-08-17T07:42:13;31.00;51.80
21891;DHT22;11110;52.386;16.940;2023-08-17T07:44:43;31.00;52.30
21891;DHT22;11110;52.386;16.940;2023-08-17T07:47:12;31.10;52.80
21891;DHT22;11110;52.386;16.940;2023-08-17T07:49:40;31.10;53.10
21891;DHT22;11110;52.386;16.940;2023-08-17T07:52:09;31.20;53.60
21891;DHT22;11110;52.386;16.940;2023-08-17T07:54:37;31.20;53.20
21891;DHT22;11110;52.386;16.940;2023-08-17T07:57:05;31.30;52.60
21891;DHT22;11110;52.386;16.940;2023-08-17T07:59:34;31.30;52.50
21891;DHT22;11110;52.386;16.940;2023-08-17T08:02:04;31.40;52.90
21891;DHT22;11110;52.386;16.940;2023-08-17T08:04:32;31.50;52.70
21891;DHT22;11110;52.386;16.940;2023-08-17T08:07:01;31.50;52.90
21891;DHT22;11110;52.386;16.940;2023-08-17T08:09:29;31.60;52.80
21891;DHT22;11110;52.386;16.940;2023-08-17T08:11:58;31.60;52.70
21891;DHT22;11110;52.386;16.940;2023-08-17T08:14:26;31.70;52.70
21891;DHT22;11110;52.386;16.940;2023-08-17T08:16:55;31.70;52.30
21891;DHT22;11110;52.386;16.940;2023-08-17T08:19:24;31.80;51.70
21891;DHT22;11110;52.386;16.940;2023-08-17T08:21:53;31.90;51.70
21891;DHT22;11110;52.386;16.940;2023-08-17T08:24:21;31.90;51.60
21891;DHT22;11110;52.386;16.940;2023-08-17T08:27:04;31.90;52.00
21891;DHT22;11110;52.386;16.940;2023-08-17T08:29:33;32.00;51.40
21891;DHT22;11110;52.386;16.940;2023-08-17T08:32:02;32.00;51.30
21891;DHT22;11110;52.386;16.940;2023-08-17T08:34:32;32.00;51.60
21891;DHT22;11110;52.386;16.940;2023-08-17T08:37:01;32.10;52.00
21891;DHT22;11110;52.386;16.940;2023-08-17T08:39:29;32.10;52.20
21891;DHT22;11110;52.386;16.940;2023-08-17T08:41:58;32.20;52.00
21891;DHT22;11110;52.386;16.940;2023-08-17T08:44:26;32.10;51.50
21891;DHT22;11110;52.386;16.940;2023-08-17T08:46:56;32.10;51.50
21891;DHT22;11110;52.386;16.940;2023-08-17T08:49:25;32.20;51.60
21891;DHT22;11110;52.386;16.940;2023-08-17T08:51:57;32.20;51.60
21891;DHT22;11110;52.386;16.940;2023-08-17T08:54:28;32.20;51.30
21891;DHT22;11110;52.386;16.940;2023-08-17T08:57:00;32.20;51.40
21891;DHT22;11110;52.386;16.940;2023-08-17T08:59:29;32.20;50.80
21891;DHT22;11110;52.386;16.940;2023-08-17T09:01:59;32.30;51.10
21891;DHT22;11110;52.386;16.940;2023-08-17T09:04:27;32.20;50.50
21891;DHT22;11110;52.386;16.940;2023-08-17T09:06:58;32.30;50.90
21891;DHT22;11110;52.386;16.940;2023-08-17T09:09:27;32.30;51.00
21891;DHT22;11110;52.386;16.940;2023-08-17T09:11:57;32.30;50.60
21891;DHT22;11110;52.386;16.940;2023-08-17T09:14:25;32.40;49.90
21891;DHT22;11110;52.386;16.940;2023-08-17T09:16:54;32.40;50.20
21891;DHT22;11110;52.386;16.940;2023-08-17T09:19:25;32.40;49.30
21891;DHT22;11110;52.386;16.940;2023-08-17T09:21:55;32.30;48.50
21891;DHT22;11110;52.386;16.940;2023-08-17T09:24:28;32.30;48.90
21891;DHT22;11110;52.386;16.940;2023-08-17T09:27:01;32.20;49.20
21891;DHT22;11110;52.386;16.940;2023-08-17T09:29:31;32.20;49.40
21891;DHT22;11110;52.386;16.940;2023-08-17T09:32:05;32.20;50.50
21891;DHT22;11110;52.386;16.940;2023-08-17T09:34:33;32.10;50.30
21891;DHT22;11110;52.386;16.940;2023-08-17T09:37:03;32.10;49.50
21891;DHT22;11110;52.386;16.940;2023-08-17T09:39:32;32.20;49.50
21891;DHT22;11110;52.386;16.940;2023-08-17T09:42:01;32.20;50.20
21891;DHT22;11110;52.386;16.940;2023-08-17T09:44:29;32.30;50.50
21891;DHT22;11110;52.386;16.940;2023-08-17T09:47:01;32.40;50.90
21891;DHT22;11110;52.386;16.940;2023-08-17T09:49:33;32.40;50.80
21891;DHT22;11110;52.386;16.940;2023-08-17T09:52:03;32.40;49.20
21891;DHT22;11110;52.386;16.940;2023-08-17T09:54:34;32.50;50.30
21891;DHT22;11110;52.386;16.940;2023-08-17T09:57:03;32.50;51.00
21891;DHT22;11110;52.386;16.940;2023-08-17T09:59:32;32.50;49.80
21891;DHT22;11110;52.386;16.940;2023-08-17T10:02:13;32.50;50.10
21891;DHT22;11110;52.386;16.940;2023-08-17T10:04:45;32.70;50.40
21891;DHT22;11110;52.386;16.940;2023-08-17T10:07:15;32.70;50.80
21891;DHT22;11110;52.386;16.940;2023-08-17T10:09:55;32.70;50.00
21891;DHT22;11110;52.386;16.940;2023-08-17T10:12:28;32.90;50.60
21891;DHT22;11110;52.386;16.940;2023-08-17T10:15:01;32.80;50.70
21891;DHT22;11110;52.386;16.940;2023-08-17T10:17:42;32.90;51.40
21891;DHT22;11110;52.386;16.940;2023-08-17T10:20:13;33.00;51.40
21891;DHT22;11110;52.386;16.940;2023-08-17T10:22:44;33.10;51.20
21891;DHT22;11110;52.386;16.940;2023-08-17T10:25:16;33.20;50.40
21891;DHT22;11110;52.386;16.940;2023-08-17T10:27:45;33.30;50.00
21891;DHT22;11110;52.386;16.940;2023-08-17T10:30:14;33.30;50.00
21891;DHT22;11110;52.386;16.940;2023-08-17T10:32:43;33.40;50.10
21891;DHT22;11110;52.386;16.940;2023-08-17T10:35:14;33.50;49.70
21891;DHT22;11110;52.386;16.940;2023-08-17T10:37:43;33.50;49.90
21891;DHT22;11110;52.386;16.940;2023-08-17T10:40:12;33.60;49.90
21891;DHT22;11110;52.386;16.940;2023-08-17T10:42:43;33.60;50.40
21891;DHT22;11110;52.386;16.940;2023-08-17T10:45:27;33.80;50.10
21891;DHT22;11110;52.386;16.940;2023-08-17T10:48:25;33.90;50.00
21891;DHT22;11110;52.386;16.940;2023-08-17T10:51:04;33.90;49.10
21891;DHT22;11110;52.386;16.940;2023-08-17T10:53:37;34.00;48.40
21891;DHT22;11110;52.386;16.940;2023-08-17T10:56:13;34.00;48.40
21891;DHT22;11110;52.386;16.940;2023-08-17T10:58:44;33.90;49.50
21891;DHT22;11110;52.386;16.940;2023-08-17T11:01:12;33.70;49.40
21891;DHT22;11110;52.386;16.940;2023-08-17T11:04:09;33.90;49.20
21891;DHT22;11110;52.386;16.940;2023-08-17T11:06:38;34.00;49.50
21891;DHT22;11110;52.386;16.940;2023-08-17T11:09:08;34.00;48.80
21891;DHT22;11110;52.386;16.940;2023-08-17T11:11:37;34.10;49.00
21891;DHT22;11110;52.386;16.940;2023-08-17T11:14:08;34.20;48.80
21891;DHT22;11110;52.386;16.940;2023-08-17T11:16:37;34.20;49.30
21891;DHT22;11110;52.386;16.940;2023-08-17T11:19:05;34.10;48.60
21891;DHT22;11110;52.386;16.940;2023-08-17T11:21:39;34.20;48.90
21891;DHT22;11110;52.386;16.940;2023-08-17T11:24:10;34.20;49.00
21891;DHT22;11110;52.386;16.940;2023-08-17T11:26:38;34.30;49.00
21891;DHT22;11110;52.386;16.940;2023-08-17T11:29:08;34.30;48.90
21891;DHT22;11110;52.386;16.940;2023-08-17T11:31:39;34.30;48.80
21891;DHT22;11110;52.386;16.940;2023-08-17T11:34:08;34.40;48.40
21891;DHT22;11110;52.386;16.940;2023-08-17T11:36:37;34.40;49.10
21891;DHT22;11110;52.386;16.940;2023-08-17T11:39:06;34.50;49.10
21891;DHT22;11110;52.386;16.940;2023-08-17T11:41:37;34.60;49.70
21891;DHT22;11110;52.386;16.940;2023-08-17T11:44:05;34.70;50.20
21891;DHT22;11110;52.386;16.940;2023-08-17T11:46:36;34.70;48.90
21891;DHT22;11110;52.386;16.940;2023-08-17T11:49:05;34.80;49.10
21891;DHT22;11110;52.386;16.940;2023-08-17T11:51:33;34.90;48.50
21891;DHT22;11110;52.386;16.940;2023-08-17T11:54:02;34.90;48.60
21891;DHT22;11110;52.386;16.940;2023-08-17T11:56:34;34.90;48.40
21891;DHT22;11110;52.386;16.940;2023-08-17T11:59:11;35.00;48.30
21891;DHT22;11110;52.386;16.940;2023-08-17T12:01:48;35.10;48.40
21891;DHT22;11110;52.386;16.940;2023-08-17T12:04:17;35.10;48.40
21891;DHT22;11110;52.386;16.940;2023-08-17T12:06:49;35.30;48.60
21891;DHT22;11110;52.386;16.940;2023-08-17T12:09:18;35.30;48.30
21891;DHT22;11110;52.386;16.940;2023-08-17T12:11:46;35.50;47.80
21891;DHT22;11110;52.386;16.940;2023-08-17T12:14:15;35.50;48.00
21891;DHT22;11110;52.386;16.940;2023-08-17T12:16:48;35.60;47.80
21891;DHT22;11110;52.386;16.940;2023-08-17T12:19:19;35.70;48.30
21891;DHT22;11110;52.386;16.940;2023-08-17T12:21:48;35.70;48.40
21891;DHT22;11110;52.386;16.940;2023-08-17T12:24:17;35.80;48.40
21891;DHT22;11110;52.386;16.940;2023-08-17T12:26:47;35.80;47.40
21891;DHT22;11110;52.386;16.940;2023-08-17T12:29:18;35.90;47.70
21891;DHT22;11110;52.386;16.940;2023-08-17T12:31:48;35.90;47.20
21891;DHT22;11110;52.386;16.940;2023-08-17T12:34:17;36.00;47.50
21891;DHT22;11110;52.386;16.940;2023-08-17T12:36:45;36.00;47.10
21891;DHT22;11110;52.386;16.940;2023-08-17T12:39:14;36.10;47.60
21891;DHT22;11110;52.386;16.940;2023-08-17T12:41:42;36.20;47.80
21891;DHT22;11110;52.386;16.940;2023-08-17T12:44:11;36.20;47.20
21891;DHT22;11110;52.386;16.940;2023-08-17T12:46:43;36.30;46.70
21891;DHT22;11110;52.386;16.940;2023-08-17T12:49:13;36.40;46.90
21891;DHT22;11110;52.386;16.940;2023-08-17T12:51:42;36.40;46.90
21891;DHT22;11110;52.386;16.940;2023-08-17T12:54:12;36.40;46.90
21891;DHT22;11110;52.386;16.940;2023-08-17T12:56:41;36.40;47.50
21891;DHT22;11110;52.386;16.940;2023-08-17T12:59:09;36.40;47.00
21891;DHT22;11110;52.386;16.940;2023-08-17T13:01:38;36.50;46.60
21891;DHT22;11110;52.386;16.940;2023-08-17T13:04:06;36.40;46.70
21891;DHT22;11110;52.386;16.940;2023-08-17T13:06:36;36.40;48.10
21891;DHT22;11110;52.386;16.940;2023-08-17T13:09:16;36.00;47.80
21891;DHT22;11110;52.386;16.940;2023-08-17T13:11:45;35.80;48.70
21891;DHT22;11110;52.386;16.940;2023-08-17T13:14:14;35.60;48.20
21891;DHT22;11110;52.386;16.940;2023-08-17T13:16:43;35.50;48.50
21891;DHT22;11110;52.386;16.940;2023-08-17T13:19:11;35.40;49.00
21891;DHT22;11110;52.386;16.940;2023-08-17T13:21:41;35.30;49.20
21891;DHT22;11110;52.386;16.940;2023-08-17T13:24:10;35.30;48.60
21891;DHT22;11110;52.386;16.940;2023-08-17T13:26:38;35.30;48.80
21891;DHT22;11110;52.386;16.940;2023-08-17T13:29:09;35.30;49.80
21891;DHT22;11110;52.386;16.940;2023-08-17T13:31:38;35.40;50.70
21891;DHT22;11110;52.386;16.940;2023-08-17T13:34:06;35.50;51.00
21891;DHT22;11110;52.386;16.940;2023-08-17T13:36:35;35.60;49.50
21891;DHT22;11110;52.386;16.940;2023-08-17T13:39:05;35.70;49.20
21891;DHT22;11110;52.386;16.940;2023-08-17T13:41:34;35.70;48.90
21891;DHT22;11110;52.386;16.940;2023-08-17T13:44:03;35.80;48.80
21891;DHT22;11110;52.386;16.940;2023-08-17T13:46:31;35.90;48.40
21891;DHT22;11110;52.386;16.940;2023-08-17T13:49:00;35.90;48.10
21891;DHT22;11110;52.386;16.940;2023-08-17T13:51:28;35.90;48.70
21891;DHT22;11110;52.386;16.940;2023-08-17T13:53:57;36.00;48.40
21891;DHT22;11110;52.386;16.940;2023-08-17T13:56:26;36.00;48.00
21891;DHT22;11110;52.386;16.940;2023-08-17T13:58:56;36.10;48.90
21891;DHT22;11110;52.386;16.940;2023-08-17T14:01:24;36.10;48.20
21891;DHT22;11110;52.386;16.940;2023-08-17T14:03:55;36.20;48.10
21891;DHT22;11110;52.386;16.940;2023-08-17T14:06:24;36.20;48.50
21891;DHT22;11110;52.386;16.940;2023-08-17T14:08:52;36.30;47.60
21891;DHT22;11110;52.386;16.940;2023-08-17T14:11:23;36.40;48.00
21891;DHT22;11110;52.386;16.940;2023-08-17T14:13:53;36.50;47.60
21891;DHT22;11110;52.386;16.940;2023-08-17T14:16:21;36.60;48.10
21891;DHT22;11110;52.386;16.940;2023-08-17T14:18:50;36.60;47.30
21891;DHT22;11110;52.386;16.940;2023-08-17T14:21:18;36.60;47.30
21891;DHT22;11110;52.386;16.940;2023-08-17T14:23:47;36.70;47.10
21891;DHT22;11110;52.386;16.940;2023-08-17T14:26:15;36.70;47.20
21891;DHT22;11110;52.386;16.940;2023-08-17T14:28:44;36.80;47.30
21891;DHT22;11110;52.386;16.940;2023-08-17T14:31:13;36.80;47.40
21891;DHT22;11110;52.386;16.940;2023-08-17T14:33:45;36.90;48.00
21891;DHT22;11110;52.386;16.940;2023-08-17T14:36:15;37.00;47.30
21891;DHT22;11110;52.386;16.940;2023-08-17T14:38:47;37.00;46.80
21891;DHT22;11110;52.386;16.940;2023-08-17T14:41:16;37.20;47.20
21891;DHT22;11110;52.386;16.940;2023-08-17T14:43:44;37.20;47.60
21891;DHT22;11110;52.386;16.940;2023-08-17T14:46:14;37.20;46.90
21891;DHT22;11110;52.386;16.940;2023-08-17T14:48:43;37.30;46.80
21891;DHT22;11110;52.386;16.940;2023-08-17T14:51:11;37.20;46.30
21891;DHT22;11110;52.386;16.940;2023-08-17T14:53:40;37.20;46.30
21891;DHT22;11110;52.386;16.940;2023-08-17T14:56:08;37.20;47.00
21891;DHT22;11110;52.386;16.940;2023-08-17T14:58:37;37.20;46.40
21891;DHT22;11110;52.386;16.940;2023-08-17T15:01:06;37.20;45.90
21891;DHT22;11110;52.386;16.940;2023-08-17T15:03:36;37.20;46.00
21891;DHT22;11110;52.386;16.940;2023-08-17T15:06:08;37.30;45.90
21891;DHT22;11110;52.386;16.940;2023-08-17T15:08:56;37.30;46.00
21891;DHT22;11110;52.386;16.940;2023-08-17T15:11:25;37.30;46.30
21891;DHT22;11110;52.386;16.940;2023-08-17T15:13:54;37.30;46.40
21891;DHT22;11110;52.386;16.940;2023-08-17T15:16:22;37.40;46.80
21891;DHT22;11110;52.386;16.940;2023-08-17T15:18:56;37.40;46.30
21891;DHT22;11110;52.386;16.940;2023-08-17T15:21:25;37.50;46.60
21891;DHT22;11110;52.386;16.940;2023-08-17T15:23:53;37.50;46.40
21891;DHT22;11110;52.386;16.940;2023-08-17T15:26:22;37.50;46.20
21891;DHT22;11110;52.386;16.940;2023-08-17T15:28:51;37.60;46.80
21891;DHT22;11110;52.386;16.940;2023-08-17T15:31:22;37.60;46.60